sensor_id;sensor_type;location;lat;lon;timestamp;P1;durP1;ratioP1;P2;durP2;ratioP2
68700;SDS011;55682;51.114;5.882;2023-08-17T00:01:40;2.71;;;2.71;;
68700;SDS011;55682;51.114;5.882;2023-08-17T00:04:06;2.63;;;2.63;;
68700;SDS011;55682;51.114;5.882;2023-08-17T00:06:32;2.68;;;2.68;;
68700;SDS011;55682;51.114;5.882;2023-08-17T00:08:58;2.61;;;2.61;;
68700;SDS011;55682;51.114;5.882;2023-08-17T00:11:24;2.77;;;2.77;;
68700;SDS011;55682;51.114;5.882;2023-08-17T00:13:50;2.78;;;2.78;;
68700;SDS011;55682;51.114;5.882;2023-08-17T00:16:15;2.90;;;2.90;;
68700;SDS011;55682;51.114;5.882;2023-08-17T00:18:42;2.82;;;2.82;;
68700;SDS011;55682;51.114;5.882;2023-08-17T00:21:08;2.82;;;2.82;;
68700;SDS011;55682;51.114;5.882;2023-08-17T00:23:34;2.80;;;2.80;;
68700;SDS011;55682;51.114;5.882;2023-08-17T00:26:00;2.68;;;2.68;;
68700;SDS011;55682;51.114;5.882;2023-08-17T00:28:25;2.76;;;2.76;;
68700;SDS011;55682;51.114;5.882;2023-08-17T00:30:51;2.84;;;2.84;;
68700;SDS011;55682;51.114;5.882;2023-08-17T00:33:17;2.97;;;2.97;;
68700;SDS011;55682;51.114;5.882;2023-08-17T00:35:43;2.88;;;2.88;;
68700;SDS011;55682;51.114;5.882;2023-08-17T00:38:11;2.69;;;2.69;;
68700;SDS011;55682;51.114;5.882;2023-08-17T00:40:37;2.84;;;2.84;;
68700;SDS011;55682;51.114;5.882;2023-08-17T00:43:03;2.66;;;2.66;;
68700;SDS011;55682;51.114;5.882;2023-08-17T00:45:30;2.50;;;2.50;;
68700;SDS011;55682;51.114;5.882;2023-08-17T00:47:57;2.79;;;2.79;;
68700;SDS011;55682;51.114;5.882;2023-08-17T00:50:24;2.88;;;2.88;;
68700;SDS011;55682;51.114;5.882;2023-08-17T00:52:51;2.78;;;2.78;;
68700;SDS011;55682;51.114;5.882;2023-08-17T00:55:19;2.63;;;2.63;;
68700;SDS011;55682;51.114;5.882;2023-08-17T00:57:46;2.50;;;2.50;;
68700;SDS011;55682;51.114;5.882;2023-08-17T01:00:12;2.62;;;2.62;;
68700;SDS011;55682;51.114;5.882;2023-08-17T01:02:40;2.71;;;2.71;;
68700;SDS011;55682;51.114;5.882;2023-08-17T01:05:07;2.49;;;2.49;;
68700;SDS011;55682;51.114;5.882;2023-08-17T01:07:32;2.37;;;2.37;;
68700;SDS011;55682;51.114;5.882;2023-08-17T01:09:59;2.58;;;2.58;;
68700;SDS011;55682;51.114;5.882;2023-08-17T01:12:31;2.75;;;2.75;;
68700;SDS011;55682;51.114;5.882;2023-08-17T01:15:05;3.19;;;3.19;;
68700;SDS011;55682;51.114;5.882;2023-08-17T01:17:40;2.99;;;2.99;;
68700;SDS011;55682;51.114;5.882;2023-08-17T01:20:11;2.79;;;2.79;;
68700;SDS011;55682;51.114;5.882;2023-08-17T01:22:41;2.99;;;2.99;;
68700;SDS011;55682;51.114;5.882;2023-08-17T01:25:10;2.82;;;2.82;;
68700;SDS011;55682;51.114;5.882;2023-08-17T01:27:40;2.96;;;2.96;;
68700;SDS011;55682;51.114;5.882;2023-08-17T01:30:07;2.88;;;2.88;;
68700;SDS011;55682;51.114;5.882;2023-08-17T01:32:43;3.00;;;3.00;;
68700;SDS011;55682;51.114;5.882;2023-08-17T01:35:23;3.00;;;3.00;;
68700;SDS011;55682;51.114;5.882;2023-08-17T01:37:56;2.76;;;2.76;;
68700;SDS011;55682;51.114;5.882;2023-08-17T01:40:28;2.84;;;2.84;;
68700;SDS011;55682;51.114;5.882;2023-08-17T01:42:58;2.57;;;2.57;;
68700;SDS011;55682;51.114;5.882;2023-08-17T01:45:26;2.72;;;2.72;;
68700;SDS011;55682;51.114;5.882;2023-08-17T01:47:52;2.94;;;2.94;;
68700;SDS011;55682;51.114;5.882;2023-08-17T01:50:17;2.41;;;2.41;;
68700;SDS011;55682;51.114;5.882;2023-08-17T01:52:43;2.88;;;2.88;;
68700;SDS011;55682;51.114;5.882;2023-08-17T01:55:09;2.80;;;2.80;;
68700;SDS011;55682;51.114;5.882;2023-08-17T01:57:35;2.88;;;2.88;;
68700;SDS011;55682;51.114;5.882;2023-08-17T02:00:02;3.13;;;3.13;;
68700;SDS011;55682;51.114;5.882;2023-08-17T02:02:39;2.88;;;2.88;;
68700;SDS011;55682;51.114;5.882;2023-08-17T02:05:05;2.84;;;2.84;;
68700;SDS011;55682;51.114;5.882;2023-08-17T02:07:32;2.88;;;2.88;;
68700;SDS011;55682;51.114;5.882;2023-08-17T02:09:58;2.95;;;2.95;;
68700;SDS011;55682;51.114;5.882;2023-08-17T02:12:24;2.56;;;2.56;;
68700;SDS011;55682;51.114;5.882;2023-08-17T02:14:50;2.72;;;2.72;;
68700;SDS011;55682;51.114;5.882;2023-08-17T02:17:16;2.51;;;2.51;;
68700;SDS011;55682;51.114;5.882;2023-08-17T02:19:44;2.87;;;2.87;;
68700;SDS011;55682;51.114;5.882;2023-08-17T02:22:10;2.77;;;2.77;;
68700;SDS011;55682;51.114;5.882;2023-08-17T02:24:36;2.65;;;2.65;;
68700;SDS011;55682;51.114;5.882;2023-08-17T02:27:02;2.56;;;2.56;;
68700;SDS011;55682;51.114;5.882;2023-08-17T02:29:28;2.93;;;2.93;;
68700;SDS011;55682;51.114;5.882;2023-08-17T02:31:53;2.70;;;2.70;;
68700;SDS011;55682;51.114;5.882;2023-08-17T02:34:19;2.66;;;2.66;;
68700;SDS011;55682;51.114;5.882;2023-08-17T02:36:44;2.91;;;2.91;;
68700;SDS011;55682;51.114;5.882;2023-08-17T02:39:10;3.04;;;3.04;;
68700;SDS011;55682;51.114;5.882;2023-08-17T02:41:36;3.01;;;3.01;;
68700;SDS011;55682;51.114;5.882;2023-08-17T02:44:01;3.13;;;3.13;;
68700;SDS011;55682;51.114;5.882;2023-08-17T02:46:28;3.04;;;3.04;;
68700;SDS011;55682;51.114;5.882;2023-08-17T02:48:54;2.94;;;2.94;;
68700;SDS011;55682;51.114;5.882;2023-08-17T02:51:19;2.95;;;2.95;;
68700;SDS011;55682;51.114;5.882;2023-08-17T02:53:45;3.70;;;3.70;;
68700;SDS011;55682;51.114;5.882;2023-08-17T02:56:10;3.80;;;3.80;;
68700;SDS011;55682;51.114;5.882;2023-08-17T02:58:37;3.89;;;3.89;;
68700;SDS011;55682;51.114;5.882;2023-08-17T03:01:07;4.11;;;4.11;;
68700;SDS011;55682;51.114;5.882;2023-08-17T03:03:33;3.98;;;3.98;;
68700;SDS011;55682;51.114;5.882;2023-08-17T03:05:59;3.93;;;3.93;;
68700;SDS011;55682;51.114;5.882;2023-08-17T03:08:25;4.02;;;4.02;;
68700;SDS011;55682;51.114;5.882;2023-08-17T03:10:51;4.60;;;4.60;;
68700;SDS011;55682;51.114;5.882;2023-08-17T03:13:17;4.56;;;4.56;;
68700;SDS011;55682;51.114;5.882;2023-08-17T03:15:43;4.54;;;4.54;;
68700;SDS011;55682;51.114;5.882;2023-08-17T03:18:08;4.58;;;4.58;;
68700;SDS011;55682;51.114;5.882;2023-08-17T03:20:36;4.52;;;4.52;;
68700;SDS011;55682;51.114;5.882;2023-08-17T03:23:01;3.99;;;3.99;;
68700;SDS011;55682;51.114;5.882;2023-08-17T03:25:31;3.98;;;3.98;;
68700;SDS011;55682;51.114;5.882;2023-08-17T03:27:57;4.09;;;4.09;;
68700;SDS011;55682;51.114;5.882;2023-08-17T03:30:23;4.19;;;4.19;;
68700;SDS011;55682;51.114;5.882;2023-08-17T03:32:49;4.37;;;4.37;;
68700;SDS011;55682;51.114;5.882;2023-08-17T03:35:15;4.23;;;4.23;;
68700;SDS011;55682;51.114;5.882;2023-08-17T03:37:41;4.18;;;4.18;;
68700;SDS011;55682;51.114;5.882;2023-08-17T03:40:07;4.14;;;4.14;;
68700;SDS011;55682;51.114;5.882;2023-08-17T03:42:33;4.04;;;4.04;;
68700;SDS011;55682;51.114;5.882;2023-08-17T03:45:01;4.06;;;4.06;;
68700;SDS011;55682;51.114;5.882;2023-08-17T03:47:27;3.85;;;3.85;;
68700;SDS011;55682;51.114;5.882;2023-08-17T03:49:52;3.62;;;3.62;;
68700;SDS011;55682;51.114;5.882;2023-08-17T03:52:18;3.45;;;3.45;;
68700;SDS011;55682;51.114;5.882;2023-08-17T03:54:44;3.78;;;3.78;;
68700;SDS011;55682;51.114;5.882;2023-08-17T03:57:11;3.54;;;3.54;;
68700;SDS011;55682;51.114;5.882;2023-08-17T03:59:37;3.53;;;3.53;;
68700;SDS011;55682;51.114;5.882;2023-08-17T04:02:03;3.44;;;3.44;;
68700;SDS011;55682;51.114;5.882;2023-08-17T04:04:30;3.25;;;3.25;;
68700;SDS011;55682;51.114;5.882;2023-08-17T04:06:56;3.40;;;3.40;;
68700;SDS011;55682;51.114;5.882;2023-08-17T04:09:22;3.42;;;3.42;;
68700;SDS011;55682;51.114;5.882;2023-08-17T04:11:48;3.35;;;3.35;;
68700;SDS011;55682;51.114;5.882;2023-08-17T04:14:13;3.29;;;3.29;;
68700;SDS011;55682;51.114;5.882;2023-08-17T04:16:39;3.40;;;3.40;;
68700;SDS011;55682;51.114;5.882;2023-08-17T04:19:05;3.32;;;3.32;;
68700;SDS011;55682;51.114;5.882;2023-08-17T04:21:31;3.25;;;3.25;;
68700;SDS011;55682;51.114;5.882;2023-08-17T04:23:57;3.11;;;3.11;;
68700;SDS011;55682;51.114;5.882;2023-08-17T04:26:22;3.19;;;3.19;;
68700;SDS011;55682;51.114;5.882;2023-08-17T04:28:49;3.14;;;3.14;;
68700;SDS011;55682;51.114;5.882;2023-08-17T04:31:15;2.96;;;2.96;;
68700;SDS011;55682;51.114;5.882;2023-08-17T04:33:43;3.20;;;3.20;;
68700;SDS011;55682;51.114;5.882;2023-08-17T04:36:09;2.99;;;2.99;;
68700;SDS011;55682;51.114;5.882;2023-08-17T04:38:35;3.25;;;3.25;;
68700;SDS011;55682;51.114;5.882;2023-08-17T04:41:01;3.02;;;3.02;;
68700;SDS011;55682;51.114;5.882;2023-08-17T04:43:28;3.00;;;3.00;;
68700;SDS011;55682;51.114;5.882;2023-08-17T04:45:54;3.28;;;3.28;;
68700;SDS011;55682;51.114;5.882;2023-08-17T04:48:20;3.12;;;3.12;;
68700;SDS011;55682;51.114;5.882;2023-08-17T04:50:47;3.06;;;3.06;;
68700;SDS011;55682;51.114;5.882;2023-08-17T04:53:13;3.20;;;3.20;;
68700;SDS011;55682;51.114;5.882;2023-08-17T04:55:39;3.10;;;3.10;;
68700;SDS011;55682;51.114;5.882;2023-08-17T04:58:05;3.36;;;3.36;;
68700;SDS011;55682;51.114;5.882;2023-08-17T05:00:30;3.17;;;3.17;;
68700;SDS011;55682;51.114;5.882;2023-08-17T05:02:57;3.24;;;3.24;;
68700;SDS011;55682;51.114;5.882;2023-08-17T05:05:26;3.26;;;3.26;;
68700;SDS011;55682;51.114;5.882;2023-08-17T05:07:52;3.19;;;3.19;;
68700;SDS011;55682;51.114;5.882;2023-08-17T05:10:18;3.23;;;3.23;;
68700;SDS011;55682;51.114;5.882;2023-08-17T05:12:44;3.58;;;3.58;;
68700;SDS011;55682;51.114;5.882;2023-08-17T05:15:10;3.32;;;3.32;;
68700;SDS011;55682;51.114;5.882;2023-08-17T05:17:35;3.35;;;3.35;;
68700;SDS011;55682;51.114;5.882;2023-08-17T05:20:02;3.73;;;3.73;;
68700;SDS011;55682;51.114;5.882;2023-08-17T05:22:29;3.70;;;3.70;;
68700;SDS011;55682;51.114;5.882;2023-08-17T05:24:55;3.57;;;3.57;;
68700;SDS011;55682;51.114;5.882;2023-08-17T05:27:21;3.74;;;3.74;;
68700;SDS011;55682;51.114;5.882;2023-08-17T05:29:47;3.70;;;3.70;;
68700;SDS011;55682;51.114;5.882;2023-08-17T05:32:13;3.78;;;3.78;;
68700;SDS011;55682;51.114;5.882;2023-08-17T05:34:41;3.92;;;3.92;;
68700;SDS011;55682;51.114;5.882;2023-08-17T05:37:06;4.06;;;4.06;;
68700;SDS011;55682;51.114;5.882;2023-08-17T05:39:33;4.03;;;4.03;;
68700;SDS011;55682;51.114;5.882;2023-08-17T05:41:58;3.99;;;3.99;;
68700;SDS011;55682;51.114;5.882;2023-08-17T05:44:24;3.99;;;3.99;;
68700;SDS011;55682;51.114;5.882;2023-08-17T05:46:50;4.20;;;4.20;;
68700;SDS011;55682;51.114;5.882;2023-08-17T05:49:16;4.22;;;4.22;;
68700;SDS011;55682;51.114;5.882;2023-08-17T05:51:41;4.29;;;4.29;;
68700;SDS011;55682;51.114;5.882;2023-08-17T05:54:07;4.83;;;4.83;;
68700;SDS011;55682;51.114;5.882;2023-08-17T05:56:32;4.32;;;4.32;;
68700;SDS011;55682;51.114;5.882;2023-08-17T05:58:58;4.34;;;4.34;;
68700;SDS011;55682;51.114;5.882;2023-08-17T06:01:24;4.22;;;4.22;;
68700;SDS011;55682;51.114;5.882;2023-08-17T06:03:49;4.25;;;4.25;;
68700;SDS011;55682;51.114;5.882;2023-08-17T06:06:15;4.41;;;4.41;;
68700;SDS011;55682;51.114;5.882;2023-08-17T06:08:41;4.31;;;4.31;;
68700;SDS011;55682;51.114;5.882;2023-08-17T06:11:06;4.38;;;4.38;;
68700;SDS011;55682;51.114;5.882;2023-08-17T06:13:32;4.78;;;4.78;;
68700;SDS011;55682;51.114;5.882;2023-08-17T06:15:58;3.88;;;3.88;;
68700;SDS011;55682;51.114;5.882;2023-08-17T06:18:23;4.55;;;4.55;;
68700;SDS011;55682;51.114;5.882;2023-08-17T06:20:49;4.04;;;4.04;;
68700;SDS011;55682;51.114;5.882;2023-08-17T06:23:19;4.15;;;4.15;;
68700;SDS011;55682;51.114;5.882;2023-08-17T06:25:45;3.95;;;3.95;;
68700;SDS011;55682;51.114;5.882;2023-08-17T06:28:11;3.69;;;3.69;;
68700;SDS011;55682;51.114;5.882;2023-08-17T06:30:36;3.70;;;3.70;;
68700;SDS011;55682;51.114;5.882;2023-08-17T06:33:02;4.64;;;4.64;;
68700;SDS011;55682;51.114;5.882;2023-08-17T06:35:28;4.55;;;4.55;;
68700;SDS011;55682;51.114;5.882;2023-08-17T06:37:53;4.15;;;4.15;;
68700;SDS011;55682;51.114;5.882;2023-08-17T06:40:23;4.31;;;4.31;;
68700;SDS011;55682;51.114;5.882;2023-08-17T06:42:49;4.31;;;4.31;;
68700;SDS011;55682;51.114;5.882;2023-08-17T06:45:15;4.12;;;4.12;;
68700;SDS011;55682;51.114;5.882;2023-08-17T06:47:43;4.19;;;4.17;;
68700;SDS011;55682;51.114;5.882;2023-08-17T06:50:10;4.24;;;4.24;;
68700;SDS011;55682;51.114;5.882;2023-08-17T06:52:36;4.51;;;4.51;;
68700;SDS011;55682;51.114;5.882;2023-08-17T06:55:02;4.85;;;4.85;;
68700;SDS011;55682;51.114;5.882;2023-08-17T06:57:27;4.75;;;4.75;;
68700;SDS011;55682;51.114;5.882;2023-08-17T06:59:54;5.08;;;5.08;;
68700;SDS011;55682;51.114;5.882;2023-08-17T07:02:19;5.58;;;5.58;;
68700;SDS011;55682;51.114;5.882;2023-08-17T07:04:45;6.07;;;6.07;;
68700;SDS011;55682;51.114;5.882;2023-08-17T07:07:12;6.53;;;6.53;;
68700;SDS011;55682;51.114;5.882;2023-08-17T07:09:39;7.34;;;7.34;;
68700;SDS011;55682;51.114;5.882;2023-08-17T07:12:05;7.13;;;7.13;;
68700;SDS011;55682;51.114;5.882;2023-08-17T07:14:31;8.15;;;8.15;;
68700;SDS011;55682;51.114;5.882;2023-08-17T07:16:56;8.13;;;8.13;;
68700;SDS011;55682;51.114;5.882;2023-08-17T07:19:22;9.59;;;9.59;;
68700;SDS011;55682;51.114;5.882;2023-08-17T07:21:48;10.38;;;10.31;;
68700;SDS011;55682;51.114;5.882;2023-08-17T07:24:14;10.03;;;9.99;;
68700;SDS011;55682;51.114;5.882;2023-08-17T07:26:41;10.17;;;9.82;;
68700;SDS011;55682;51.114;5.882;2023-08-17T07:29:07;10.18;;;9.89;;
68700;SDS011;55682;51.114;5.882;2023-08-17T07:31:33;10.75;;;10.72;;
68700;SDS011;55682;51.114;5.882;2023-08-17T07:34:02;11.61;;;11.40;;
68700;SDS011;55682;51.114;5.882;2023-08-17T07:36:31;11.22;;;11.09;;
68700;SDS011;55682;51.114;5.882;2023-08-17T07:38:58;11.54;;;11.54;;
68700;SDS011;55682;51.114;5.882;2023-08-17T07:41:23;11.10;;;11.10;;
68700;SDS011;55682;51.114;5.882;2023-08-17T07:43:49;11.36;;;11.33;;
68700;SDS011;55682;51.114;5.882;2023-08-17T07:46:15;11.91;;;11.83;;
68700;SDS011;55682;51.114;5.882;2023-08-17T07:48:40;11.69;;;11.59;;
68700;SDS011;55682;51.114;5.882;2023-08-17T07:51:06;11.50;;;11.50;;
68700;SDS011;55682;51.114;5.882;2023-08-17T07:53:32;12.10;;;12.06;;
68700;SDS011;55682;51.114;5.882;2023-08-17T07:55:58;14.15;;;14.06;;
68700;SDS011;55682;51.114;5.882;2023-08-17T07:58:23;13.81;;;13.79;;
68700;SDS011;55682;51.114;5.882;2023-08-17T08:00:49;13.54;;;13.49;;
68700;SDS011;55682;51.114;5.882;2023-08-17T08:03:15;13.23;;;13.14;;
68700;SDS011;55682;51.114;5.882;2023-08-17T08:05:40;13.31;;;13.30;;
68700;SDS011;55682;51.114;5.882;2023-08-17T08:08:06;13.96;;;13.93;;
68700;SDS011;55682;51.114;5.882;2023-08-17T08:10:32;14.03;;;14.03;;
68700;SDS011;55682;51.114;5.882;2023-08-17T08:12:58;14.80;;;14.80;;
68700;SDS011;55682;51.114;5.882;2023-08-17T08:15:23;13.93;;;13.93;;
68700;SDS011;55682;51.114;5.882;2023-08-17T08:17:49;13.97;;;13.93;;
68700;SDS011;55682;51.114;5.882;2023-08-17T08:20:15;14.43;;;14.40;;
68700;SDS011;55682;51.114;5.882;2023-08-17T08:22:40;15.11;;;14.99;;
68700;SDS011;55682;51.114;5.882;2023-08-17T08:25:06;15.76;;;15.56;;
68700;SDS011;55682;51.114;5.882;2023-08-17T08:27:32;15.98;;;15.80;;
68700;SDS011;55682;51.114;5.882;2023-08-17T08:29:57;16.67;;;16.63;;
68700;SDS011;55682;51.114;5.882;2023-08-17T08:32:23;16.59;;;16.48;;
68700;SDS011;55682;51.114;5.882;2023-08-17T08:34:49;16.00;;;15.88;;
68700;SDS011;55682;51.114;5.882;2023-08-17T08:37:14;15.35;;;15.24;;
68700;SDS011;55682;51.114;5.882;2023-08-17T08:39:50;15.83;;;15.83;;
68700;SDS011;55682;51.114;5.882;2023-08-17T08:42:22;15.52;;;15.47;;
68700;SDS011;55682;51.114;5.882;2023-08-17T08:44:49;15.67;;;15.56;;
68700;SDS011;55682;51.114;5.882;2023-08-17T08:47:16;15.51;;;15.39;;
68700;SDS011;55682;51.114;5.882;2023-08-17T08:52:31;15.76;;;15.51;;
68700;SDS011;55682;51.114;5.882;2023-08-17T08:55:02;15.81;;;15.63;;
68700;SDS011;55682;51.114;5.882;2023-08-17T08:57:35;15.15;;;15.12;;
68700;SDS011;55682;51.114;5.882;2023-08-17T09:00:02;15.12;;;15.03;;
68700;SDS011;55682;51.114;5.882;2023-08-17T09:02:29;15.40;;;15.38;;
68700;SDS011;55682;51.114;5.882;2023-08-17T09:04:55;16.02;;;15.92;;
68700;SDS011;55682;51.114;5.882;2023-08-17T09:07:21;16.79;;;16.69;;
68700;SDS011;55682;51.114;5.882;2023-08-17T09:09:48;15.77;;;15.54;;
68700;SDS011;55682;51.114;5.882;2023-08-17T09:12:15;15.64;;;15.64;;
68700;SDS011;55682;51.114;5.882;2023-08-17T09:14:40;15.50;;;15.50;;
68700;SDS011;55682;51.114;5.882;2023-08-17T09:17:06;15.27;;;15.14;;
68700;SDS011;55682;51.114;5.882;2023-08-17T09:19:33;14.09;;;14.02;;
68700;SDS011;55682;51.114;5.882;2023-08-17T09:22:02;15.73;;;15.72;;
68700;SDS011;55682;51.114;5.882;2023-08-17T09:24:36;16.06;;;16.06;;
68700;SDS011;55682;51.114;5.882;2023-08-17T09:27:03;15.88;;;15.88;;
68700;SDS011;55682;51.114;5.882;2023-08-17T09:29:29;16.35;;;16.35;;
68700;SDS011;55682;51.114;5.882;2023-08-17T09:32:05;16.88;;;16.87;;
68700;SDS011;55682;51.114;5.882;2023-08-17T09:34:32;15.00;;;14.95;;
68700;SDS011;55682;51.114;5.882;2023-08-17T09:37:04;16.29;;;16.16;;
68700;SDS011;55682;51.114;5.882;2023-08-17T09:39:31;16.59;;;16.58;;
68700;SDS011;55682;51.114;5.882;2023-08-17T09:41:57;16.55;;;16.52;;
68700;SDS011;55682;51.114;5.882;2023-08-17T09:44:24;16.75;;;16.75;;
68700;SDS011;55682;51.114;5.882;2023-08-17T09:46:50;17.27;;;17.25;;
68700;SDS011;55682;51.114;5.882;2023-08-17T09:49:17;18.90;;;18.79;;
68700;SDS011;55682;51.114;5.882;2023-08-17T09:51:43;18.64;;;18.61;;
68700;SDS011;55682;51.114;5.882;2023-08-17T09:54:31;18.99;;;18.99;;
68700;SDS011;55682;51.114;5.882;2023-08-17T09:56:57;18.27;;;18.21;;
68700;SDS011;55682;51.114;5.882;2023-08-17T09:59:23;19.78;;;19.51;;
68700;SDS011;55682;51.114;5.882;2023-08-17T10:01:50;17.91;;;17.48;;
68700;SDS011;55682;51.114;5.882;2023-08-17T10:04:19;16.61;;;16.61;;
68700;SDS011;55682;51.114;5.882;2023-08-17T10:06:51;16.74;;;16.49;;
68700;SDS011;55682;51.114;5.882;2023-08-17T10:09:24;16.44;;;16.43;;
68700;SDS011;55682;51.114;5.882;2023-08-17T10:11:54;16.40;;;16.28;;
68700;SDS011;55682;51.114;5.882;2023-08-17T10:14:28;15.52;;;15.50;;
68700;SDS011;55682;51.114;5.882;2023-08-17T10:17:03;17.09;;;16.64;;
68700;SDS011;55682;51.114;5.882;2023-08-17T10:24:38;17.11;;;17.04;;
68700;SDS011;55682;51.114;5.882;2023-08-17T10:27:05;16.86;;;16.85;;
68700;SDS011;55682;51.114;5.882;2023-08-17T10:29:31;16.72;;;16.71;;
68700;SDS011;55682;51.114;5.882;2023-08-17T10:32:00;16.80;;;16.49;;
68700;SDS011;55682;51.114;5.882;2023-08-17T10:34:27;16.22;;;16.11;;
68700;SDS011;55682;51.114;5.882;2023-08-17T10:36:54;15.37;;;15.37;;
68700;SDS011;55682;51.114;5.882;2023-08-17T10:39:23;15.83;;;15.69;;
68700;SDS011;55682;51.114;5.882;2023-08-17T10:41:51;16.10;;;15.95;;
68700;SDS011;55682;51.114;5.882;2023-08-17T10:44:18;15.68;;;15.64;;
68700;SDS011;55682;51.114;5.882;2023-08-17T10:47:18;14.17;;;14.14;;
68700;SDS011;55682;51.114;5.882;2023-08-17T10:49:55;14.58;;;14.46;;
68700;SDS011;55682;51.114;5.882;2023-08-17T10:52:27;13.78;;;13.69;;
68700;SDS011;55682;51.114;5.882;2023-08-17T10:55:01;13.09;;;13.09;;
68700;SDS011;55682;51.114;5.882;2023-08-17T10:57:34;12.71;;;12.71;;
68700;SDS011;55682;51.114;5.882;2023-08-17T11:02:43;12.49;;;12.42;;
68700;SDS011;55682;51.114;5.882;2023-08-17T11:05:10;12.67;;;12.63;;
68700;SDS011;55682;51.114;5.882;2023-08-17T11:07:41;12.17;;;12.16;;
68700;SDS011;55682;51.114;5.882;2023-08-17T11:10:29;13.50;;;13.48;;
68700;SDS011;55682;51.114;5.882;2023-08-17T11:12:55;12.99;;;12.99;;
68700;SDS011;55682;51.114;5.882;2023-08-17T11:15:25;13.57;;;13.36;;
68700;SDS011;55682;51.114;5.882;2023-08-17T11:17:52;13.31;;;13.23;;
68700;SDS011;55682;51.114;5.882;2023-08-17T11:20:18;13.73;;;13.73;;
68700;SDS011;55682;51.114;5.882;2023-08-17T11:22:45;14.37;;;14.15;;
68700;SDS011;55682;51.114;5.882;2023-08-17T11:25:11;13.21;;;13.15;;
68700;SDS011;55682;51.114;5.882;2023-08-17T11:27:38;13.35;;;13.34;;
68700;SDS011;55682;51.114;5.882;2023-08-17T11:30:04;13.89;;;13.89;;
68700;SDS011;55682;51.114;5.882;2023-08-17T11:32:30;14.26;;;14.25;;
68700;SDS011;55682;51.114;5.882;2023-08-17T11:34:56;14.40;;;14.36;;
68700;SDS011;55682;51.114;5.882;2023-08-17T11:37:21;15.14;;;14.96;;
68700;SDS011;55682;51.114;5.882;2023-08-17T11:39:48;16.59;;;16.41;;
68700;SDS011;55682;51.114;5.882;2023-08-17T11:42:14;16.04;;;15.92;;
68700;SDS011;55682;51.114;5.882;2023-08-17T11:44:40;17.81;;;17.61;;
68700;SDS011;55682;51.114;5.882;2023-08-17T11:47:06;19.16;;;18.96;;
68700;SDS011;55682;51.114;5.882;2023-08-17T11:49:32;20.27;;;19.95;;
68700;SDS011;55682;51.114;5.882;2023-08-17T11:51:58;21.63;;;21.28;;
68700;SDS011;55682;51.114;5.882;2023-08-17T11:54:23;22.29;;;21.73;;
68700;SDS011;55682;51.114;5.882;2023-08-17T11:56:49;22.46;;;21.93;;
68700;SDS011;55682;51.114;5.882;2023-08-17T11:59:15;23.70;;;23.08;;
68700;SDS011;55682;51.114;5.882;2023-08-17T12:01:43;19.72;;;19.54;;
68700;SDS011;55682;51.114;5.882;2023-08-17T12:04:10;19.90;;;19.82;;
68700;SDS011;55682;51.114;5.882;2023-08-17T12:06:42;20.63;;;20.41;;
68700;SDS011;55682;51.114;5.882;2023-08-17T12:09:10;21.64;;;21.30;;
68700;SDS011;55682;51.114;5.882;2023-08-17T12:11:39;25.35;;;25.19;;
68700;SDS011;55682;51.114;5.882;2023-08-17T12:14:08;23.84;;;23.54;;
68700;SDS011;55682;51.114;5.882;2023-08-17T12:16:46;22.66;;;22.47;;
68700;SDS011;55682;51.114;5.882;2023-08-17T12:19:16;24.50;;;24.06;;
68700;SDS011;55682;51.114;5.882;2023-08-17T12:21:42;23.75;;;23.22;;
68700;SDS011;55682;51.114;5.882;2023-08-17T12:24:10;25.76;;;25.00;;
68700;SDS011;55682;51.114;5.882;2023-08-17T12:26:46;26.22;;;25.87;;
68700;SDS011;55682;51.114;5.882;2023-08-17T12:29:12;26.83;;;26.51;;
68700;SDS011;55682;51.114;5.882;2023-08-17T12:31:38;22.91;;;22.54;;
68700;SDS011;55682;51.114;5.882;2023-08-17T12:34:04;26.13;;;25.77;;
68700;SDS011;55682;51.114;5.882;2023-08-17T12:36:34;28.38;;;27.76;;
68700;SDS011;55682;51.114;5.882;2023-08-17T12:39:03;22.99;;;22.70;;
68700;SDS011;55682;51.114;5.882;2023-08-17T12:41:29;24.08;;;23.87;;
68700;SDS011;55682;51.114;5.882;2023-08-17T12:43:55;23.62;;;23.23;;
68700;SDS011;55682;51.114;5.882;2023-08-17T12:46:24;23.00;;;22.68;;
68700;SDS011;55682;51.114;5.882;2023-08-17T12:48:50;22.58;;;22.32;;
68700;SDS011;55682;51.114;5.882;2023-08-17T12:51:16;24.74;;;24.34;;
68700;SDS011;55682;51.114;5.882;2023-08-17T12:53:42;25.76;;;25.34;;
68700;SDS011;55682;51.114;5.882;2023-08-17T12:56:07;26.18;;;25.74;;
68700;SDS011;55682;51.114;5.882;2023-08-17T12:58:33;26.28;;;25.84;;
68700;SDS011;55682;51.114;5.882;2023-08-17T13:00:59;25.41;;;25.01;;
68700;SDS011;55682;51.114;5.882;2023-08-17T13:03:25;26.84;;;26.66;;
68700;SDS011;55682;51.114;5.882;2023-08-17T13:05:50;25.62;;;25.27;;
68700;SDS011;55682;51.114;5.882;2023-08-17T13:08:16;29.01;;;28.55;;
68700;SDS011;55682;51.114;5.882;2023-08-17T13:10:42;27.40;;;26.95;;
68700;SDS011;55682;51.114;5.882;2023-08-17T13:13:07;27.58;;;27.18;;
68700;SDS011;55682;51.114;5.882;2023-08-17T13:15:33;30.35;;;29.82;;
68700;SDS011;55682;51.114;5.882;2023-08-17T13:17:59;27.75;;;27.20;;
68700;SDS011;55682;51.114;5.882;2023-08-17T13:20:25;27.22;;;26.73;;
68700;SDS011;55682;51.114;5.882;2023-08-17T13:22:51;23.34;;;23.09;;
68700;SDS011;55682;51.114;5.882;2023-08-17T13:25:16;23.64;;;23.28;;
68700;SDS011;55682;51.114;5.882;2023-08-17T13:27:43;22.84;;;22.52;;
68700;SDS011;55682;51.114;5.882;2023-08-17T13:30:08;23.52;;;23.18;;
68700;SDS011;55682;51.114;5.882;2023-08-17T13:32:34;23.44;;;23.17;;
68700;SDS011;55682;51.114;5.882;2023-08-17T13:35:03;23.91;;;23.54;;
68700;SDS011;55682;51.114;5.882;2023-08-17T13:37:29;20.75;;;20.42;;
68700;SDS011;55682;51.114;5.882;2023-08-17T13:39:55;23.47;;;22.82;;
68700;SDS011;55682;51.114;5.882;2023-08-17T13:42:20;26.14;;;25.91;;
68700;SDS011;55682;51.114;5.882;2023-08-17T13:44:46;25.98;;;25.55;;
68700;SDS011;55682;51.114;5.882;2023-08-17T13:47:12;25.59;;;25.18;;
68700;SDS011;55682;51.114;5.882;2023-08-17T13:49:37;24.41;;;24.06;;
68700;SDS011;55682;51.114;5.882;2023-08-17T13:52:03;21.98;;;21.90;;
68700;SDS011;55682;51.114;5.882;2023-08-17T13:54:29;27.29;;;26.97;;
68700;SDS011;55682;51.114;5.882;2023-08-17T13:56:55;27.20;;;26.91;;
68700;SDS011;55682;51.114;5.882;2023-08-17T13:59:20;27.37;;;27.07;;
68700;SDS011;55682;51.114;5.882;2023-08-17T14:01:47;28.14;;;27.65;;
68700;SDS011;55682;51.114;5.882;2023-08-17T14:04:12;24.83;;;24.57;;
68700;SDS011;55682;51.114;5.882;2023-08-17T14:06:39;30.32;;;29.91;;
68700;SDS011;55682;51.114;5.882;2023-08-17T14:09:06;30.08;;;29.27;;
68700;SDS011;55682;51.114;5.882;2023-08-17T14:11:32;32.87;;;32.02;;
68700;SDS011;55682;51.114;5.882;2023-08-17T14:13:58;30.40;;;29.93;;
68700;SDS011;55682;51.114;5.882;2023-08-17T14:16:23;28.91;;;28.34;;
68700;SDS011;55682;51.114;5.882;2023-08-17T14:18:49;26.75;;;26.25;;
68700;SDS011;55682;51.114;5.882;2023-08-17T14:21:15;26.54;;;26.11;;
68700;SDS011;55682;51.114;5.882;2023-08-17T14:23:41;24.24;;;23.92;;
68700;SDS011;55682;51.114;5.882;2023-08-17T14:26:06;22.72;;;22.48;;
68700;SDS011;55682;51.114;5.882;2023-08-17T14:28:32;21.95;;;21.78;;
68700;SDS011;55682;51.114;5.882;2023-08-17T14:30:58;20.93;;;20.85;;
68700;SDS011;55682;51.114;5.882;2023-08-17T14:33:23;20.11;;;20.04;;
68700;SDS011;55682;51.114;5.882;2023-08-17T14:35:49;20.70;;;20.70;;
68700;SDS011;55682;51.114;5.882;2023-08-17T14:38:15;21.30;;;21.06;;
68700;SDS011;55682;51.114;5.882;2023-08-17T14:40:42;21.33;;;21.15;;
68700;SDS011;55682;51.114;5.882;2023-08-17T14:43:13;19.45;;;19.22;;
68700;SDS011;55682;51.114;5.882;2023-08-17T14:45:42;21.88;;;21.60;;